^^
Datos históricos de la estación: Murcia-Puente Tocinos
Diario Informe para Septiembre 24, 2021 Unidades:  Ingés    Métrico   Ambas
Diario Semanal Mensual Anual
  Máxima: Mínima: Promedio:
Temperatura: 85.6 °F 73.6 °F 77.7 °F
Punto de rocio: 70.9 °F 64.9 °F 67.1 °F
Humedad: 82.8% 51.2% 70%
Velocidad viento: 10.7mph 0mph 4.3mph
Racha viento: 17.3mph - -
Viento- - Sur
Presión: 30 in 29.9 in -
Precipitación: 0 in    
 
 
Tabla de datos para Septiembre 24, 2021
Hora Temperatura Punto de rocio Presión Viento Velocidad viento Racha viento Humedad Intensidad lluvia(por hora) Nubes
00:04 75.7 °F 65.1 °F 29.9 in NNO 3.6 mph 4.6 mph 69.8% 0 in
00:09 75.7 °F 65.3 °F 29.9 in NNO 3.2 mph 3.6 mph 70% 0 in
00:14 75.7 °F 65.3 °F 29.9 in NNO 2.4 mph 4.6 mph 70% 0 in
00:19 75.7 °F 64.9 °F 29.9 in NO 2.4 mph 4.7 mph 69.1% 0 in
00:24 75.9 °F 64.9 °F 29.9 in ONO 2.4 mph 5.2 mph 69% 0 in
00:29 75.9 °F 64.9 °F 29.9 in NO 2.6 mph 4.7 mph 69% 0 in
00:34 75.9 °F 64.9 °F 29.9 in NO 3.1 mph 5.2 mph 69% 0 in
00:39 75.9 °F 65.1 °F 29.9 in NO 2.9 mph 4.6 mph 69% 0 in
00:44 75.9 °F 65.1 °F 29.9 in NO 2.4 mph 4.6 mph 69% 0 in
00:49 75.9 °F 65.3 °F 29.9 in NO 2.3 mph 3.6 mph 69.5% 0 in
00:54 75.9 °F 65.5 °F 29.9 in NO 2 mph 2.9 mph 70% 0 in
00:59 75.9 °F 65.5 °F 29.9 in NO 1.9 mph 2.9 mph 70% 0 in
01:04 75.9 °F 65.5 °F 29.9 in NO 1.8 mph 2.3 mph 70% 0 in
01:09 75.9 °F 65.5 °F 29.9 in NO 1.2 mph 2.3 mph 70% 0 in
01:14 76.1 °F 65.5 °F 29.9 in Calm   4.6 mph 70% 0 in
01:19 76.1 °F 65.5 °F 29.9 in OSO 0.6 mph 4.6 mph 70% 0 in
01:24 76.1 °F 65.7 °F 29.9 in OSO 2 mph 4.6 mph 70% 0 in
01:29 76.1 °F 65.5 °F 29.9 in SO 2.1 mph 5.2 mph 69.9% 0 in
01:34 76.1 °F 65.3 °F 29.9 in SO 2.4 mph 4.6 mph 69.4% 0 in
01:39 75.9 °F 64.9 °F 29.9 in SO 2.4 mph 3.6 mph 69% 0 in
01:44 75.9 °F 65.3 °F 29.9 in SO 2.4 mph 4.6 mph 69.8% 0 in
01:49 75.7 °F 65.3 °F 29.9 in SSO 2.4 mph 4.7 mph 70% 0 in
01:54 75.7 °F 65.3 °F 29.9 in Sur 2.4 mph 5.9 mph 70% 0 in
01:59 75.7 °F 65.1 °F 29.9 in OSO 3 mph 9.7 mph 70% 0 in
02:04 75.6 °F 65.1 °F 29.9 in Oeste 4.3 mph 8.1 mph 70% 0 in
02:09 75.6 °F 65.1 °F 29.9 in OSO 4.3 mph 5.8 mph 70% 0 in
02:14 75.6 °F 65.1 °F 29.9 in OSO 4.3 mph 6.9 mph 70.4% 0 in
02:19 75.4 °F 65.3 °F 29.9 in SO 4.4 mph 10.4 mph 71% 0 in
02:24 75.4 °F 65.3 °F 29.9 in SO 4.7 mph 7.4 mph 71% 0 in
02:29 75.2 °F 65.1 °F 29.9 in SO 4.8 mph 10.4 mph 71% 0 in
02:34 75 °F 64.9 °F 29.9 in SO 5.4 mph 9.2 mph 71% 0 in
02:39 75 °F 65.1 °F 29.9 in SO 5 mph 6.9 mph 71.2% 0 in
02:44 75 °F 65.5 °F 29.9 in SO 4 mph 5.4 mph 72% 0 in
02:49 74.8 °F 65.3 °F 29.9 in OSO 3.7 mph 5.9 mph 72% 0 in
02:54 74.8 °F 65.1 °F 29.9 in SO 2.9 mph 6.2 mph 72% 0 in
02:59 74.8 °F 65.1 °F 29.9 in SO 3.3 mph 5.8 mph 72% 0 in
03:04 74.7 °F 64.9 °F 29.9 in SSO 4 mph 5.8 mph 72% 0 in
03:09 74.7 °F 65.1 °F 29.9 in Sur 3.7 mph 5.9 mph 72.2% 0 in
03:14 74.7 °F 65.3 °F 29.9 in SSO 3.1 mph 5.9 mph 72.9% 0 in
03:19 74.7 °F 65.5 °F 29.9 in SSO 3.4 mph 6.9 mph 73% 0 in
03:24 74.7 °F 65.3 °F 29.9 in Sur 4 mph 6.9 mph 73% 0 in
03:29 74.5 °F 65.3 °F 29.9 in SSO 4.1 mph 8.5 mph 73% 0 in
03:34 74.5 °F 65.3 °F 29.9 in SO 4.3 mph 6.9 mph 73% 0 in
03:39 74.5 °F 65.3 °F 29.9 in SO 4.2 mph 5.8 mph 73% 0 in
03:44 74.5 °F 65.3 °F 29.9 in SSO 4 mph 6.2 mph 73% 0 in
03:49 74.5 °F 65.3 °F 29.9 in SO 4.1 mph 7.4 mph 73% 0 in
03:54 74.5 °F 65.3 °F 29.9 in SO 4.3 mph 6.9 mph 73% 0 in
03:59 74.5 °F 65.3 °F 29.9 in SSO 4.2 mph 6.9 mph 73% 0 in
04:04 74.5 °F 65.3 °F 29.9 in SO 4 mph 6.9 mph 73% 0 in
04:09 74.7 °F 65.3 °F 29.9 in SSO 4 mph 7.4 mph 73% 0 in
04:14 74.7 °F 65.5 °F 29.9 in SSO 4 mph 5.8 mph 73% 0 in
04:19 74.7 °F 65.5 °F 29.9 in Sur 3.7 mph 4.6 mph 73% 0 in
04:24 74.7 °F 65.5 °F 29.9 in Sur 3.1 mph 3.5 mph 73% 0 in
04:29 74.7 °F 65.5 °F 29.9 in Sur 2.9 mph 5.8 mph 73% 0 in
04:34 74.7 °F 65.5 °F 29.9 in SO 2.4 mph 5.8 mph 73% 0 in
04:39 74.7 °F 65.5 °F 29.9 in OSO 2.5 mph 3.5 mph 73% 0 in
04:44 74.7 °F 65.5 °F 29.9 in OSO 2.9 mph 5.2 mph 73% 0 in
04:49 74.7 °F 65.5 °F 29.9 in Oeste 2.9 mph 4.6 mph 73% 0 in
04:54 74.7 °F 65.5 °F 29.9 in Oeste 2.9 mph 3.5 mph 73% 0 in
04:59 74.7 °F 65.3 °F 29.9 in Oeste 2.5 mph 2.9 mph 73% 0 in
05:04 74.5 °F 65.3 °F 29.9 in Oeste 1.8 mph 3.6 mph 73% 0 in
05:09 74.5 °F 65.3 °F 29.9 in Oeste 1.9 mph 3.6 mph 73% 0 in
05:14 74.5 °F 65.3 °F 29.9 in OSO 2 mph 6.2 mph 73% 0 in
05:19 74.5 °F 65.5 °F 29.9 in SO 2.3 mph 5.9 mph 73.9% 0 in
05:24 74.3 °F 65.1 °F 29.9 in SSO 2.9 mph 6.9 mph 73% 0 in
05:29 74.3 °F 65.1 °F 29.9 in SSO 3.3 mph 7.4 mph 73% 0 in
05:34 74.3 °F 65.1 °F 29.9 in SO 4.3 mph 8.5 mph 73% 0 in
05:39 74.3 °F 65.3 °F 29.9 in SO 4.3 mph 6.2 mph 73.1% 0 in
05:44 74.3 °F 65.5 °F 29.9 in SO 4.3 mph 6.9 mph 74% 0 in
05:49 74.3 °F 65.5 °F 29.9 in SO 4.4 mph 8.1 mph 74% 0 in
05:54 74.3 °F 65.5 °F 29.9 in SO 4.7 mph 8.1 mph 74% 0 in
05:59 74.3 °F 65.5 °F 29.9 in SO 4.5 mph 7.4 mph 74% 0 in
06:04 74.1 °F 65.3 °F 29.9 in SO 4.3 mph 7.4 mph 74% 0 in
06:09 74.1 °F 65.3 °F 29.9 in SO 4.3 mph 6.9 mph 74% 0 in
06:14 74.1 °F 65.3 °F 29.9 in OSO 4.3 mph 6.9 mph 74% 0 in
06:19 74.1 °F 65.3 °F 29.9 in SO 4.3 mph 7.4 mph 74% 0 in
06:24 74.1 °F 65.5 °F 29.9 in OSO 4.3 mph 6.9 mph 74.3% 0 in
06:29 73.9 °F 65.5 °F 29.9 in OSO 4.2 mph 8.1 mph 75% 0 in
06:34 73.9 °F 65.5 °F 29.9 in OSO 3.6 mph 6.4 mph 75% 0 in
06:39 73.9 °F 65.5 °F 29.9 in OSO 3.6 mph 6.9 mph 75% 0 in
06:44 73.9 °F 65.5 °F 29.9 in OSO 3.6 mph 4.6 mph 75% 0 in
06:49 73.9 °F 65.5 °F 29.9 in OSO 3.3 mph 3.5 mph 75% 0 in
06:54 73.8 °F 65.3 °F 29.9 in OSO 2 mph 4.6 mph 75% 0 in
06:59 73.8 °F 65.3 °F 29.9 in OSO 2 mph 3.5 mph 75% 0 in
07:04 73.8 °F 65.5 °F 29.9 in OSO 2 mph 3.1 mph 75.3% 0 in
07:09 73.8 °F 65.7 °F 29.9 in OSO 2 mph 3.6 mph 75.9% 0 in
07:14 73.8 °F 65.7 °F 29.9 in OSO 2 mph 2.9 mph 76% 0 in
07:19 73.8 °F 65.7 °F 29.9 in OSO 1.9 mph 4.6 mph 76% 0 in
07:24 73.6 °F 65.5 °F 29.9 in SO 1.8 mph 5.2 mph 76% 0 in
07:29 73.6 °F 65.5 °F 29.9 in OSO 2.2 mph 5.9 mph 76% 0 in
07:34 73.6 °F 65.5 °F 29.9 in SO 3.1 mph 4.7 mph 76% 0 in
07:39 73.6 °F 65.5 °F 29.9 in Sur 3 mph 4.6 mph 76% 0 in
07:44 73.8 °F 65.5 °F 29.9 in Sur 2.9 mph 3.5 mph 75.6% 0 in
07:49 73.8 °F 65.3 °F 29.9 in Sur 2.5 mph 4.6 mph 75.1% 0 in
07:54 73.8 °F 65.7 °F 29.9 in Sur 1.8 mph 4.7 mph 75.7% 0 in
07:59 73.8 °F 65.7 °F 29.9 in Sur 2 mph 4.6 mph 76% 0 in
08:04 73.8 °F 65.7 °F 29.9 in SSE 2.4 mph 4.6 mph 76% 0 in
08:09 73.8 °F 65.7 °F 29.9 in SSO 2.5 mph 4.7 mph 76% 0 in
08:14 73.6 °F 65.5 °F 29.9 in OSO 2.9 mph 4.6 mph 76% 0 in
08:19 73.8 °F 65.7 °F 29.9 in OSO 2.7 mph 5.4 mph 76% 0 in
08:24 73.8 °F 65.7 °F 29.9 in SO 2.4 mph 6.9 mph 76% 0 in
08:29 73.9 °F 65.5 °F 29.9 in SO 2.9 mph 6.2 mph 75.1% 0 in
08:34 73.9 °F 65.5 °F 29.9 in SO 4 mph 7.4 mph 75% 0 in
08:39 73.9 °F 65.5 °F 29.9 in OSO 4 mph 6.9 mph 75% 0 in
08:44 74.1 °F 65.7 °F 29.9 in OSO 4 mph 8.1 mph 75% 0 in
08:49 74.1 °F 65.7 °F 29.9 in SO 4 mph 8.1 mph 75% 0 in
08:54 74.1 °F 65.8 °F 29.9 in SO 4 mph 6.9 mph 75% 0 in
08:59 74.3 °F 65.8 °F 29.9 in SO 4 mph 6.2 mph 74.8% 0 in
09:04 74.3 °F 65.5 °F 29.9 in OSO 4 mph 5.9 mph 74% 0 in
09:09 74.5 °F 65.5 °F 29.9 in SO 3.7 mph 4.7 mph 74% 0 in
09:14 74.5 °F 65.7 °F 29.9 in SO 2.9 mph 6.2 mph 74% 0 in
09:19 74.5 °F 65.7 °F 29.9 in SO 3.2 mph 5.9 mph 74% 0 in
09:24 74.7 °F 65.8 °F 29.9 in SO 4 mph 5.9 mph 74% 0 in
09:29 74.8 °F 65.5 °F 29.9 in OSO 3.9 mph 8.1 mph 73.1% 0 in
09:34 74.7 °F 65.5 °F 29.9 in OSO 3.6 mph 5.9 mph 73% 0 in
09:39 74.7 °F 65.7 °F 29.9 in OSO 3.7 mph 5.8 mph 73.5% 0 in
09:44 74.7 °F 65.7 °F 29.9 in Oeste 4 mph 5.2 mph 73.5% 0 in
09:49 74.8 °F 65.7 °F 29.9 in SO 3.7 mph 4.7 mph 73% 0 in
09:54 75 °F 65.7 °F 29.9 in OSO 2.9 mph 8.1 mph 72.8% 0 in
09:59 75 °F 65.5 °F 29.9 in OSO 3.3 mph 8.1 mph 72% 0 in
10:04 75 °F 65.5 °F 29.9 in Oeste 4 mph 7.4 mph 72% 0 in
10:09 75 °F 64.9 °F 29.9 in OSO 4.2 mph 8.5 mph 71% 0 in
10:14 75 °F 64.9 °F 29.9 in OSO 4.7 mph 8.5 mph 71% 0 in
10:19 75.2 °F 65.1 °F 29.9 in OSO 4.6 mph 7.4 mph 71% 0 in
10:24 75.4 °F 65.3 °F 29.9 in Oeste 4.3 mph 8.1 mph 70.8% 0 in
10:29 75.4 °F 64.9 °F 29.9 in ONO 4.6 mph 8.1 mph 70.2% 0 in
10:34 75.6 °F 65.1 °F 29.9 in ONO 5.2 mph 6.9 mph 70.1% 0 in
10:39 75.7 °F 65.3 °F 29.9 in Oeste 4.8 mph 6.9 mph 70% 0 in
10:44 75.7 °F 65.3 °F 29.9 in Oeste 4 mph 6.9 mph 70% 0 in
10:49 75.9 °F 65.1 °F 29.9 in SO 3.9 mph 6.9 mph 69.2% 0 in
10:54 76.5 °F 65.1 °F 29.9 in OSO 3.6 mph 6.2 mph 68.4% 0 in
10:59 76.6 °F 65.1 °F 29.9 in OSO 3.7 mph 8.5 mph 67.5% 0 in
11:04 76.8 °F 64.9 °F 29.9 in OSO 4 mph 8.5 mph 67% 0 in
11:09 77 °F 65.1 °F 29.9 in Oeste 4.3 mph 8.1 mph 67% 0 in
11:14 77.2 °F 65.3 °F 29.9 in Oeste 5.2 mph 7.6 mph 67% 0 in
11:19 77.4 °F 65.1 °F 29.9 in OSO 4.8 mph 8.5 mph 66.1% 0 in
11:24 77.4 °F 65.1 °F 29.9 in OSO 4 mph 9.2 mph 66% 0 in
11:29 77.5 °F 65.1 °F 29.9 in OSO 4.2 mph 9.7 mph 65.7% 0 in
11:34 77.5 °F 65.1 °F 29.9 in OSO 4.7 mph 9.2 mph 65.6% 0 in
11:39 77.9 °F 65.1 °F 29.9 in Oeste 4.6 mph 6.9 mph 65% 0 in
11:44 78.1 °F 65.3 °F 29.9 in OSO 4.3 mph 9.7 mph 65% 0 in
11:49 78.1 °F 65.5 °F 29.9 in Oeste 4.4 mph 8.7 mph 65% 0 in
11:54 78.1 °F 65.5 °F 30 in OSO 4.7 mph 9.2 mph 65% 0 in
11:59 78.1 °F 65.3 °F 30 in Oeste 5 mph 7.4 mph 65% 0 in
12:04 78.1 °F 65.5 °F 30 in Oeste 5.4 mph 8.5 mph 65% 0 in
12:09 78.3 °F 65.5 °F 30 in Oeste 5.3 mph 9.2 mph 65% 0 in
12:14 78.3 °F 65.5 °F 30 in ONO 5.2 mph 8.5 mph 65% 0 in
12:19 78.4 °F 65.7 °F 30 in OSO 5 mph 7.4 mph 64.9% 0 in
12:24 79 °F 65.7 °F 30 in SO 4.7 mph 6.9 mph 64% 0 in
12:29 79 °F 65.8 °F 30 in SO 4.7 mph 8.1 mph 64% 0 in
12:34 79.2 °F 65.7 °F 30 in OSO 4.7 mph 8.5 mph 63.4% 0 in
12:39 79.7 °F 66 °F 30 in Sur 4.2 mph 4.6 mph 63% 0 in
12:44 80.2 °F 66 °F 29.9 in SSO 3.1 mph 6.9 mph 62.1% 0 in
12:49 81 °F 66.4 °F 29.9 in SSO 3.1 mph 6.9 mph 61.5% 0 in
12:54 81.1 °F 66.4 °F 29.9 in SSO 3.1 mph 5.9 mph 60.6% 0 in
12:59 81.7 °F 66.4 °F 29.9 in Oeste 3 mph 5.8 mph 60% 0 in
13:04 82 °F 66.4 °F 29.9 in ONO 2.9 mph 10.4 mph 59.1% 0 in
13:09 81.9 °F 66 °F 29.9 in Oeste 3.7 mph 10.7 mph 59% 0 in
13:14 81.1 °F 65.8 °F 29.9 in ONO 5.2 mph 9.2 mph 59.8% 0 in
13:19 81 °F 65.8 °F 29.9 in ONO 5.4 mph 8.1 mph 60.2% 0 in
13:24 81 °F 65.8 °F 29.9 in NO 5.9 mph 8.7 mph 60% 0 in
13:29 81 °F 66 °F 29.9 in NO 5.5 mph 9.2 mph 60.5% 0 in
13:34 81.1 °F 65.8 °F 29.9 in Oeste 4.7 mph 6.9 mph 60% 0 in
13:39 81.5 °F 66 °F 29.9 in ONO 4.5 mph 7.4 mph 59.5% 0 in
13:44 81.9 °F 66 °F 29.9 in ONO 4 mph 8.1 mph 58.9% 0 in
13:49 82 °F 66.2 °F 29.9 in NO 3.9 mph 9.7 mph 58.7% 0 in
13:54 82.4 °F 66 °F 29.9 in North 3.6 mph 9.2 mph 58.1% 0 in
13:59 82.6 °F 66.2 °F 29.9 in NNE 3.9 mph 6.9 mph 57.8% 0 in
14:04 82.6 °F 66 °F 29.9 in North 4.3 mph 6.9 mph 57.3% 0 in
14:09 82.8 °F 66 °F 29.9 in NE 4 mph 5.9 mph 57% 0 in
14:14 82.9 °F 66 °F 29.9 in NE 3.1 mph 6.2 mph 56.9% 0 in
14:19 83.3 °F 66.2 °F 29.9 in Este 3.2 mph 10.4 mph 56.4% 0 in
14:24 83.3 °F 65.8 °F 29.9 in ESE 3.6 mph 8.1 mph 55.8% 0 in
14:29 83.5 °F 65.8 °F 29.9 in ENE 4.1 mph 9.2 mph 55.6% 0 in
14:34 83.3 °F 65.7 °F 29.9 in NE 5.2 mph 8.1 mph 55.4% 0 in
14:39 83.5 °F 65.5 °F 29.9 in NO 4.8 mph 5.8 mph 55% 0 in
14:44 83.8 °F 66 °F 29.9 in NNE 4 mph 5.9 mph 55% 0 in
14:49 84.2 °F 65.8 °F 29.9 in ENE 3.7 mph 6.9 mph 54.1% 0 in
14:54 84.4 °F 65.8 °F 29.9 in OSO 3.1 mph 6.9 mph 54% 0 in
14:59 84.4 °F 65.8 °F 29.9 in ENE 3.3 mph 8.1 mph 53.8% 0 in
15:04 84.2 °F 65.5 °F 29.9 in ENE 3.6 mph 7.4 mph 53.6% 0 in
15:09 84 °F 65.7 °F 29.9 in ENE 3.7 mph 8.5 mph 54% 0 in
15:14 84.4 °F 65.8 °F 29.9 in North 4 mph 8.1 mph 54% 0 in
15:19 84.6 °F 65.7 °F 29.9 in NO 4.2 mph 9.7 mph 53.3% 0 in
15:24 84.6 °F 65.7 °F 29.9 in NO 4.7 mph 6.2 mph 53.4% 0 in
15:29 84.9 °F 65.8 °F 29.9 in NE 4.1 mph 4.6 mph 53% 0 in
15:34 85.6 °F 66 °F 29.9 in NNE 2.9 mph 9.7 mph 52.3% 0 in
15:39 85.6 °F 65.5 °F 29.9 in Este 3.1 mph 8.1 mph 51.2% 0 in
15:44 85.5 °F 65.7 °F 29.9 in ENE 3.6 mph 8.1 mph 51.8% 0 in
15:49 85.5 °F 65.7 °F 29.9 in NNE 4 mph 9.2 mph 51.8% 0 in
15:54 85.3 °F 65.7 °F 29.9 in NNE 5.2 mph 8.1 mph 52% 0 in
15:59 85.5 °F 66.2 °F 29.9 in NNE 4.9 mph 8.1 mph 52.8% 0 in
16:04 85.5 °F 67.1 °F 29.9 in ENE 4.3 mph 10 mph 54.1% 0 in
16:09 85.5 °F 67.8 °F 29.9 in ENE 4.8 mph 10.4 mph 56% 0 in
16:14 84.9 °F 67.5 °F 29.9 in NE 5.9 mph 10.7 mph 56% 0 in
16:19 84.7 °F 67.3 °F 29.9 in NE 6 mph 10.7 mph 55.9% 0 in
16:24 84.7 °F 67.1 °F 29.9 in NNE 6.2 mph 10.4 mph 55.5% 0 in
16:29 84.9 °F 67.3 °F 29.9 in NE 5.9 mph 11.2 mph 55.6% 0 in
16:34 84.9 °F 68.5 °F 29.9 in NE 5.2 mph 15 mph 57.9% 0 in
16:39 84.9 °F 69.8 °F 29.9 in NE 6.1 mph 15.9 mph 60.7% 0 in
16:44 84.2 °F 69.6 °F 29.9 in ENE 8.1 mph 16.1 mph 61.8% 0 in
16:49 84 °F 69.6 °F 29.9 in NE 8.2 mph 15 mph 62.2% 0 in
16:54 83.8 °F 69.6 °F 29.9 in NE 8.5 mph 14 mph 62.4% 0 in
16:59 83.8 °F 69.4 °F 29.9 in NE 8.1 mph 15 mph 62.2% 0 in
17:04 83.7 °F 69.4 °F 29.9 in NE 7.4 mph 13.8 mph 62.5% 0 in
17:09 83.7 °F 69.6 °F 29.9 in NE 7.4 mph 13.8 mph 63% 0 in
17:14 83.7 °F 70.2 °F 29.9 in NE 7.4 mph 15.2 mph 63.8% 0 in
17:19 83.3 °F 70 °F 29.9 in NE 8 mph 16.1 mph 64.4% 0 in
17:24 82.9 °F 70 °F 29.9 in NE 9.2 mph 13.8 mph 65% 0 in
17:29 82.9 °F 70 °F 29.9 in NE 9 mph 15.6 mph 65% 0 in
17:34 82.8 °F 70.2 °F 29.9 in NE 8.5 mph 17.3 mph 65.9% 0 in
17:39 82.6 °F 70.5 °F 29.9 in ENE 9.2 mph 15 mph 67% 0 in
17:44 82.4 °F 70.3 °F 29.9 in ENE 10.7 mph 16.1 mph 67.1% 0 in
17:49 82.6 °F 70.7 °F 29.9 in ENE 9.9 mph 16.1 mph 67.2% 0 in
17:54 82.8 °F 70.5 °F 29.9 in NE 8.1 mph 14.7 mph 67% 0 in
17:59 82.2 °F 70.3 °F 29.9 in NE 8.1 mph 15 mph 67.5% 0 in
18:04 82 °F 70.3 °F 29.9 in NE 8.1 mph 13.8 mph 68% 0 in
18:09 81.7 °F 70.3 °F 29.9 in NE 8.2 mph 16.1 mph 68.4% 0 in
18:14 81.3 °F 70 °F 29.9 in NE 8.5 mph 15 mph 68.5% 0 in
18:19 81.1 °F 70.2 °F 29.9 in NE 8.9 mph 15 mph 69.4% 0 in
18:24 81.1 °F 70.3 °F 29.9 in NE 10 mph 13.8 mph 70% 0 in
18:29 81.1 °F 70.3 °F 29.9 in NE 8.8 mph 10.4 mph 70% 0 in
18:34 81.1 °F 70.3 °F 29.9 in NE 6.2 mph 13 mph 69.6% 0 in
18:39 81.1 °F 70.3 °F 29.9 in NE 6.3 mph 11.2 mph 70% 0 in
18:44 81 °F 70.3 °F 29.9 in NE 6.4 mph 12.7 mph 70% 0 in
18:49 80.8 °F 70.2 °F 29.9 in NE 6.4 mph 13.5 mph 70.2% 0 in
18:54 80.8 °F 70.3 °F 29.9 in NE 6.4 mph 13.8 mph 70.8% 0 in
18:59 80.6 °F 70.2 °F 29.9 in NE 6.4 mph 11.5 mph 70.8% 0 in
19:04 80.4 °F 70.2 °F 29.9 in NE 6.4 mph 11.8 mph 71% 0 in
19:09 80.4 °F 70.5 °F 29.9 in NE 6.8 mph 13 mph 71.9% 0 in
19:14 80.2 °F 70.7 °F 29.9 in NE 7.6 mph 11.8 mph 72.6% 0 in
19:19 80.1 °F 70.5 °F 29.9 in NE 7.8 mph 15.2 mph 73% 0 in
19:24 79.9 °F 70.5 °F 29.9 in NE 8.1 mph 15 mph 73.2% 0 in
19:29 79.9 °F 70.7 °F 29.9 in NE 8.1 mph 11.5 mph 73.8% 0 in
19:34 79.5 °F 70.2 °F 29.9 in NE 8.1 mph 14 mph 73% 0 in
19:39 79.5 °F 70.3 °F 29.9 in NE 8 mph 13.8 mph 73.7% 0 in
19:44 79.2 °F 70.5 °F 29.9 in NE 7.6 mph 13.8 mph 74.7% 0 in
19:49 79.2 °F 70.7 °F 29.9 in NNE 7.6 mph 11.8 mph 75.6% 0 in
19:54 78.8 °F 70.7 °F 29.9 in NE 7.6 mph 15 mph 76% 0 in
19:59 78.6 °F 70.5 °F 29.9 in NE 7.5 mph 13.8 mph 76.6% 0 in
20:04 78.4 °F 70.5 °F 29.9 in NE 7.4 mph 12.7 mph 77% 0 in
20:09 78.3 °F 70.7 °F 29.9 in NE 7.1 mph 11.5 mph 77.9% 0 in
20:14 78.1 °F 70.7 °F 29.9 in NE 6.4 mph 11.5 mph 78% 0 in
20:19 78.1 °F 70.9 °F 29.9 in NNE 6.3 mph 10.4 mph 78.9% 0 in
20:24 77.7 °F 70.9 °F 29.9 in NNE 6.2 mph 9.2 mph 79% 0 in
20:29 77.5 °F 70.7 °F 29.9 in NNE 6.2 mph 11.5 mph 79.2% 0 in
20:34 77.5 °F 70.9 °F 29.9 in NNE 6.2 mph 10.7 mph 80% 0 in
20:39 77.4 °F 70.7 °F 29.9 in NNE 6.2 mph 11.5 mph 80% 0 in
20:44 77.4 °F 70.7 °F 29.9 in NNE 6.2 mph 9.2 mph 80% 0 in
20:49 77.2 °F 70.5 °F 29.9 in NNE 6.2 mph 9.7 mph 80% 0 in
20:54 77.2 °F 70.7 °F 29.9 in NNE 6.2 mph 8.1 mph 80.6% 0 in
20:59 76.8 °F 70.5 °F 29.9 in NNE 5.9 mph 8.5 mph 81% 0 in
21:04 76.8 °F 70.5 °F 29.9 in NNE 5.4 mph 8.1 mph 81% 0 in
21:09 76.6 °F 70.3 °F 29.9 in NE 5.4 mph 7.4 mph 81% 0 in
21:14 76.6 °F 70.3 °F 29.9 in NE 5.4 mph 7.4 mph 81% 0 in
21:19 76.6 °F 70.3 °F 29.9 in NE 5.2 mph 7.4 mph 81% 0 in
21:24 76.6 °F 70.3 °F 29.9 in NE 4.7 mph 7.4 mph 81% 0 in
21:29 76.6 °F 70.3 °F 29.9 in NE 4.7 mph 8.1 mph 81% 0 in
21:34 76.6 °F 70.3 °F 29.9 in NE 4.7 mph 6.2 mph 81% 0 in
21:39 76.6 °F 70.5 °F 29.9 in NE 4.5 mph 5.9 mph 81.3% 0 in
21:44 76.5 °F 70.5 °F 29.9 in NE 4 mph 5.2 mph 82% 0 in
21:49 76.5 °F 70.5 °F 29.9 in NE 3.9 mph 5.8 mph 82% 0 in
21:54 76.5 °F 70.5 °F 30 in NE 3.6 mph 4 mph 82% 0 in
21:59 76.5 °F 70.5 °F 30 in NE 3.2 mph 4.6 mph 82% 0 in
22:04 76.5 °F 70.5 °F 30 in North 2.4 mph 4.3 mph 82% 0 in
22:09 76.5 °F 70.5 °F 30 in North 2.5 mph 6.2 mph 82% 0 in
22:14 76.5 °F 70.5 °F 29.9 in NO 2.9 mph 6.2 mph 82% 0 in
22:19 76.5 °F 70.5 °F 29.9 in NO 2.7 mph 2.9 mph 82% 0 in
22:24 76.5 °F 70.5 °F 30 in NO 2.4 mph 2.3 mph 82% 0 in
22:29 76.5 °F 70.5 °F 30 in Oeste 2.1 mph 4.6 mph 82% 0 in
22:34 76.5 °F 70.5 °F 30 in SSE 1.4 mph 5.2 mph 82% 0 in
22:39 76.5 °F 70.7 °F 30 in SE 1.9 mph 5.9 mph 82% 0 in
22:44 76.6 °F 70.5 °F 30 in ESE 3.1 mph 7.6 mph 81.4% 0 in
22:49 76.6 °F 70.5 °F 30 in Este 3.6 mph 8.1 mph 81.2% 0 in
22:54 76.5 °F 70.7 °F 30 in Este 4.7 mph 4.6 mph 82% 0 in
22:59 76.5 °F 70.5 °F 30 in NE 3.7 mph 4.6 mph 82% 0 in
23:04 76.5 °F 70.5 °F 30 in NE 2 mph 2.3 mph 82% 0 in
23:09 76.3 °F 70.3 °F 30 in NE 1.4 mph 5.4 mph 82% 0 in
23:14 76.3 °F 70.3 °F 30 in Calm   6.9 mph 82% 0 in
23:19 76.3 °F 70.3 °F 30 in NO 1 mph 5.2 mph 82% 0 in
23:24 76.3 °F 70.3 °F 30 in NO 3.1 mph 5.2 mph 82% 0 in
23:29 76.3 °F 70.5 °F 30 in NO 2.9 mph 4.6 mph 82.1% 0 in
23:34 76.1 °F 70.5 °F 30 in NO 2.4 mph 2.3 mph 82.8% 0 in
23:39 76.1 °F 70.5 °F 30 in NO 1.6 mph 2.9 mph 82.8% 0 in
23:44 76.1 °F 70.3 °F 30 in Calm   4.6 mph 82.5% 0 in
23:49 76.3 °F 70.5 °F 30 in Oeste 0.8 mph 4.6 mph 82.5% 0 in
23:54 76.3 °F 70.3 °F 30 in Oeste 2.4 mph 3.5 mph 82% 0 in
23:59 76.3 °F 70.3 °F 30 in OSO 2.2 mph 5.2 mph 82% 0 in
Murcia-Puente Tocinos, España
Compliments of Weather Underground - 2.5 mb

La estación de MeteoMurcia.com, publica sus datos en los siguientes proyectos:

Weather Underground PWS IMURCIAP2 Meteoclimatic www.awekas.at

W3Counter
Web Analytics